Time;durP1;ratioP1;P1;durP2;ratioP2;P2;SDS_P1;SDS_P2;PMS_P1;PMS_P2;Temp;Humidity;BMP_temperature;BMP_pressure;BME280_temperature;BME280_humidity;BME280_pressure;Samples;Min_cycle;Max_cycle;Signal;HPM_P1;HPM_P2
2022/08/09 00:01:02;;;;;;;3.78;1.75;;;21.40;64.70;;;;;;5111437;28;20196;-70
2022/08/09 00:03:28;;;;;;;2.85;1.80;;;21.40;64.80;;;;;;5112276;28;20274;-73
2022/08/09 00:05:54;;;;;;;2.65;1.80;;;21.30;65.00;;;;;;5114181;28;20202;-69
2022/08/09 00:08:20;;;;;;;2.40;1.60;;;21.30;65.20;;;;;;5110093;28;20260;-73
2022/08/09 00:10:45;;;;;;;2.67;1.60;;;21.30;65.40;;;;;;5132983;28;20179;-75
2022/08/09 00:13:11;;;;;;;2.22;2.03;;;21.20;65.60;;;;;;5112979;28;20223;-68
2022/08/09 00:15:37;;;;;;;2.00;1.70;;;21.20;65.80;;;;;;5114770;28;20248;-70
2022/08/09 00:18:03;;;;;;;2.40;1.80;;;21.10;65.90;;;;;;5113692;28;20174;-71
2022/08/09 00:20:28;;;;;;;2.58;1.70;;;21.10;66.10;;;;;;5110039;28;20264;-72
2022/08/09 00:22:54;;;;;;;2.03;1.83;;;21.10;66.40;;;;;;5115084;28;20216;-71
2022/08/09 00:25:20;;;;;;;2.80;2.13;;;21.10;66.70;;;;;;5112562;28;20202;-73
2022/08/09 00:27:48;;;;;;;3.10;2.00;;;21.00;66.70;;;;;;5109879;28;20213;-72
2022/08/09 00:30:13;;;;;;;3.38;2.20;;;21.00;67.00;;;;;;5113814;28;20183;-70
2022/08/09 00:32:40;;;;;;;2.85;2.03;;;21.00;67.20;;;;;;5113775;28;20210;-71
2022/08/09 00:35:08;;;;;;;3.05;1.80;;;20.90;67.30;;;;;;5109199;28;20297;-71
2022/08/09 00:37:34;;;;;;;2.30;1.67;;;20.90;67.60;;;;;;5111377;28;20167;-73
2022/08/09 00:40:00;;;;;;;2.10;1.73;;;20.80;67.70;;;;;;5110919;28;20247;-68
2022/08/09 00:42:28;;;;;;;2.45;1.77;;;20.80;67.90;;;;;;5112364;28;20243;-73
2022/08/09 00:44:54;;;;;;;2.03;1.77;;;20.80;68.20;;;;;;5108132;28;20171;-74
2022/08/09 00:47:26;;;;;;;3.15;2.00;;;20.70;68.30;;;;;;5112176;28;20191;-73
2022/08/09 00:49:52;;;;;;;2.00;1.70;;;20.70;68.60;;;;;;5111534;28;20174;-71
2022/08/09 00:52:19;;;;;;;2.05;1.65;;;20.70;68.80;;;;;;5110944;28;20179;-71
2022/08/09 00:54:49;;;;;;;2.00;1.70;;;20.60;68.90;;;;;;5111059;28;20175;-72
2022/08/09 00:57:15;;;;;;;2.13;1.83;;;20.60;69.10;;;;;;5113140;28;20171;-70
2022/08/09 00:59:44;;;;;;;2.47;1.73;;;20.60;69.30;;;;;;5111721;28;20266;-72
2022/08/09 01:02:10;;;;;;;3.10;2.00;;;20.50;69.50;;;;;;5111442;28;20179;-69
2022/08/09 01:04:54;;;;;;;3.15;1.88;;;20.50;70.30;;;;;;5112507;28;20190;-73
2022/08/09 01:07:35;;;;;;;2.28;1.70;;;20.50;71.10;;;;;;5125658;28;20190;-72
2022/08/09 01:10:48;;;;;;;2.53;2.10;;;20.50;70.70;;;;;;5108746;28;20220;-70
2022/08/09 01:13:26;;;;;;;2.78;1.90;;;20.40;71.80;;;;;;5091104;28;20189;-70
2022/08/09 01:15:55;;;;;;;3.20;2.22;;;20.40;70.90;;;;;;5115241;28;20179;-67
2022/08/09 01:18:30;;;;;;;2.25;1.80;;;20.30;70.90;;;;;;5114902;28;20196;-70
2022/08/09 01:21:33;;;;;;;2.33;1.92;;;20.30;71.50;;;;;;5114315;28;20171;-70
2022/08/09 01:24:06;;;;;;;2.80;2.00;;;20.30;72.90;;;;;;5117190;28;20178;-72
2022/08/09 01:26:52;;;;;;;3.22;2.10;;;20.20;71.60;;;;;;5115311;28;20201;-74
2022/08/09 01:29:28;;;;;;;2.22;1.70;;;20.20;73.00;;;;;;5114560;28;20263;-70
2022/08/09 01:32:01;;;;;;;2.03;1.70;;;20.10;72.40;;;;;;5117664;28;20224;-70
2022/08/09 01:34:30;;;;;;;2.38;1.90;;;20.10;72.00;;;;;;5112255;28;20179;-72
2022/08/09 01:36:57;;;;;;;3.28;1.90;;;20.10;72.20;;;;;;5112855;28;20187;-73
2022/08/09 01:39:29;;;;;;;2.95;2.10;;;20.10;72.40;;;;;;5113805;28;20205;-72
2022/08/09 01:41:58;;;;;;;2.63;1.83;;;20.00;73.60;;;;;;5107973;28;20179;-73
2022/08/09 01:44:28;;;;;;;2.65;1.65;;;20.00;72.60;;;;;;5111792;28;20191;-70
2022/08/09 01:46:58;;;;;;;2.35;2.10;;;19.90;73.30;;;;;;5115883;28;20205;-71
2022/08/09 01:49:26;;;;;;;3.25;2.03;;;19.90;73.60;;;;;;5114059;28;20191;-69
2022/08/09 01:51:55;;;;;;;2.22;1.75;;;19.90;73.40;;;;;;5114460;28;20224;-70
2022/08/09 01:54:35;;;;;;;2.38;1.90;;;19.90;73.80;;;;;;5114575;28;20183;-75
2022/08/09 01:57:16;;;;;;;3.83;1.85;;;19.80;74.80;;;;;;5113080;28;20232;-71
2022/08/09 01:59:44;;;;;;;2.10;1.67;;;19.80;74.40;;;;;;5115255;28;20211;-71
2022/08/09 02:02:16;;;;;;;2.15;1.90;;;19.80;74.30;;;;;;5115527;28;20262;-74
2022/08/09 02:04:43;;;;;;;2.58;1.83;;;19.80;74.80;;;;;;5116070;28;20220;-74
2022/08/09 02:07:18;;;;;;;2.67;1.70;;;19.70;75.20;;;;;;5114962;28;20183;-71
2022/08/09 02:09:50;;;;;;;3.10;1.70;;;19.70;75.40;;;;;;5109138;28;20187;-74
2022/08/09 02:12:19;;;;;;;2.22;1.85;;;19.70;75.80;;;;;;5113270;28;20725;-71
2022/08/09 02:14:50;;;;;;;3.55;1.83;;;19.70;75.30;;;;;;5115684;28;20159;-70
2022/08/09 02:17:18;;;;;;;2.58;1.80;;;19.60;75.80;;;;;;5112425;28;20219;-74
2022/08/09 02:19:44;;;;;;;3.20;2.00;;;19.60;75.70;;;;;;5111952;28;20185;-72
2022/08/09 02:22:24;;;;;;;2.85;2.08;;;19.60;75.70;;;;;;5113942;28;20183;-73
2022/08/09 02:24:55;;;;;;;2.55;1.80;;;19.60;77.20;;;;;;5110960;28;20245;-74
2022/08/09 02:27:26;;;;;;;2.88;2.13;;;19.50;76.50;;;;;;5110046;28;20243;-71
2022/08/09 02:29:56;;;;;;;2.58;2.13;;;19.50;77.40;;;;;;5113253;28;20205;-68
2022/08/09 02:32:29;;;;;;;2.75;2.00;;;19.50;77.00;;;;;;5114509;28;20191;-72
2022/08/09 02:34:59;;;;;;;2.58;2.03;;;19.40;77.20;;;;;;5109597;28;20278;-73
2022/08/09 02:37:30;;;;;;;2.00;1.70;;;19.40;77.40;;;;;;5112072;28;20242;-70
2022/08/09 02:40:02;;;;;;;2.20;1.80;;;19.30;77.40;;;;;;5112621;28;20237;-71
2022/08/09 02:42:33;;;;;;;2.33;1.98;;;19.30;77.90;;;;;;5112375;28;20171;-70
2022/08/09 02:45:09;;;;;;;2.65;1.88;;;19.20;78.00;;;;;;5116488;28;20248;-71
2022/08/09 02:47:39;;;;;;;2.80;1.90;;;19.20;78.50;;;;;;5113446;28;20191;-72
2022/08/09 02:50:10;;;;;;;3.00;2.10;;;19.20;78.50;;;;;;5115695;28;20183;-68
2022/08/09 02:52:42;;;;;;;2.67;1.70;;;19.10;78.50;;;;;;5113350;28;20218;-72
2022/08/09 02:55:12;;;;;;;2.60;2.00;;;19.10;79.10;;;;;;5114192;28;20178;-71
2022/08/09 02:57:39;;;;;;;2.72;1.90;;;19.00;78.90;;;;;;5113612;28;20184;-69
2022/08/09 03:00:09;;;;;;;3.10;2.20;;;19.00;79.20;;;;;;5112654;28;20263;-71
2022/08/09 03:02:42;;;;;;;3.08;2.30;;;19.00;79.60;;;;;;5115853;28;20163;-71
2022/08/09 03:05:11;;;;;;;3.03;2.20;;;18.90;80.10;;;;;;5114428;28;20163;-72
2022/08/09 03:07:40;;;;;;;2.60;2.10;;;18.90;80.00;;;;;;5128784;28;20233;-72
2022/08/09 03:10:09;;;;;;;2.80;1.85;;;18.90;80.10;;;;;;5112040;28;20171;-73
2022/08/09 03:12:39;;;;;;;2.20;1.90;;;18.90;81.10;;;;;;5113026;28;20179;-72
2022/08/09 03:15:07;;;;;;;3.00;2.15;;;18.80;81.40;;;;;;5125242;28;20182;-70
2022/08/09 03:17:35;;;;;;;2.90;2.30;;;18.80;81.30;;;;;;5112993;28;20183;-73
2022/08/09 03:20:06;;;;;;;2.45;2.10;;;18.80;81.40;;;;;;5107404;28;20179;-72
2022/08/09 03:22:38;;;;;;;2.72;2.05;;;18.80;82.40;;;;;;5109917;28;20187;-73
2022/08/09 03:25:10;;;;;;;2.50;1.73;;;18.80;82.20;;;;;;5111738;28;20203;-69
2022/08/09 03:27:36;;;;;;;4.25;2.00;;;18.80;82.70;;;;;;5112975;28;20203;-71
2022/08/09 03:30:03;;;;;;;2.92;2.28;;;18.70;82.10;;;;;;5113178;28;20183;-73
2022/08/09 03:32:34;;;;;;;2.53;2.03;;;18.70;82.70;;;;;;5114985;28;20249;-71
2022/08/09 03:35:00;;;;;;;3.25;2.13;;;18.70;83.70;;;;;;5110473;28;20241;-74
2022/08/09 03:37:27;;;;;;;2.15;1.92;;;18.60;82.90;;;;;;5109591;28;20179;-71
2022/08/09 03:39:52;;;;;;;2.47;2.08;;;18.60;83.30;;;;;;5110911;28;20194;-74
2022/08/09 03:42:18;;;;;;;4.28;2.03;;;18.60;83.40;;;;;;5110269;28;20183;-72
2022/08/09 03:44:46;;;;;;;2.70;2.03;;;18.60;83.60;;;;;;5107848;28;20186;-72
2022/08/09 03:47:12;;;;;;;2.80;2.22;;;18.50;84.50;;;;;;5114690;28;20176;-69
2022/08/09 03:49:39;;;;;;;3.13;2.25;;;18.50;84.20;;;;;;5111602;28;20239;-69
2022/08/09 03:52:07;;;;;;;4.15;2.30;;;18.50;84.90;;;;;;5110097;28;20190;-73
2022/08/09 03:54:36;;;;;;;4.07;2.03;;;18.50;85.10;;;;;;5112452;28;20171;-73
2022/08/09 03:57:11;;;;;;;2.90;1.95;;;18.50;85.60;;;;;;5108805;28;20167;-72
2022/08/09 03:59:42;;;;;;;3.17;1.90;;;18.40;86.10;;;;;;5129015;28;20190;-73
2022/08/09 04:02:09;;;;;;;4.72;2.47;;;18.40;86.20;;;;;;5109734;28;20227;-72
2022/08/09 04:04:37;;;;;;;2.92;2.25;;;18.40;86.00;;;;;;5108517;28;20224;-73
2022/08/09 04:07:03;;;;;;;3.80;2.30;;;18.30;86.40;;;;;;5110122;28;20202;-72
2022/08/09 04:09:31;;;;;;;3.90;2.20;;;18.30;86.80;;;;;;5124459;28;20236;-72
2022/08/09 04:12:40;;;;;;;2.92;2.15;;;18.30;87.10;;;;;;5109955;28;20265;-70
2022/08/09 04:15:07;;;;;;;2.30;2.00;;;18.30;89.90;;;;;;5102647;28;20194;-73
2022/08/09 04:17:34;;;;;;;4.10;2.28;;;18.30;87.50;;;;;;5110167;28;20251;-72
2022/08/09 04:20:00;;;;;;;3.05;2.20;;;18.30;87.80;;;;;;5112868;28;20258;-69
2022/08/09 04:22:28;;;;;;;3.25;1.88;;;18.30;88.20;;;;;;5110538;28;20224;-70
2022/08/09 04:24:53;;;;;;;4.32;2.25;;;18.30;88.40;;;;;;5111566;28;20171;-73
2022/08/09 04:27:19;;;;;;;4.72;2.33;;;18.30;88.80;;;;;;5106294;28;20262;-73
2022/08/09 04:29:47;;;;;;;4.05;2.85;;;18.30;89.10;;;;;;5102458;28;20293;-72
2022/08/09 04:32:13;;;;;;;4.05;2.70;;;18.30;89.80;;;;;;5098494;28;20172;-78
2022/08/09 04:34:41;;;;;;;2.60;2.20;;;18.20;89.60;;;;;;5098030;28;20229;-76
2022/08/09 04:37:09;;;;;;;5.60;2.40;;;18.20;90.30;;;;;;5097833;28;20171;-77
2022/08/09 04:39:39;;;;;;;2.75;2.15;;;18.30;90.40;;;;;;5104536;28;20220;-77
2022/08/09 04:42:08;;;;;;;3.05;2.10;;;18.20;90.10;;;;;;5105462;28;20202;-76
2022/08/09 04:44:33;;;;;;;3.47;2.17;;;18.20;90.20;;;;;;5093951;28;20183;-73
2022/08/09 04:46:59;;;;;;;2.58;2.08;;;18.20;90.30;;;;;;5106614;28;20191;-73
2022/08/09 04:49:36;;;;;;;2.85;1.90;;;18.20;90.40;;;;;;5114518;28;20214;-75
2022/08/09 04:52:03;;;;;;;2.90;2.25;;;18.20;90.80;;;;;;5111824;28;20171;-77
2022/08/09 04:54:29;;;;;;;2.85;2.20;;;18.20;90.70;;;;;;5116271;28;20193;-69
2022/08/09 04:56:58;;;;;;;2.58;2.00;;;18.20;90.80;;;;;;5113452;28;20214;-78
2022/08/09 04:59:23;;;;;;;3.38;2.35;;;18.20;91.20;;;;;;5114375;28;20178;-78
2022/08/09 05:01:49;;;;;;;3.97;2.15;;;18.20;91.10;;;;;;5108342;28;20163;-73
2022/08/09 05:04:15;;;;;;;2.35;1.90;;;18.20;91.20;;;;;;5110099;28;20227;-74
2022/08/09 05:06:43;;;;;;;2.50;2.00;;;18.20;91.30;;;;;;5132022;28;20175;-77
2022/08/09 05:09:09;;;;;;;3.50;2.20;;;18.20;91.70;;;;;;5113207;28;20218;-75
2022/08/09 05:11:35;;;;;;;2.40;1.75;;;18.20;91.50;;;;;;5114767;28;20179;-71
2022/08/09 05:14:01;;;;;;;3.28;1.90;;;18.10;91.60;;;;;;5117784;28;20223;-71
2022/08/09 05:16:26;;;;;;;3.63;2.03;;;18.10;91.70;;;;;;5114775;28;20184;-71
2022/08/09 05:18:54;;;;;;;2.90;2.20;;;18.10;91.90;;;;;;5113436;28;20167;-72
2022/08/09 05:21:20;;;;;;;2.50;2.00;;;18.10;92.00;;;;;;5115333;28;20198;-74
2022/08/09 05:23:46;;;;;;;3.38;2.38;;;18.20;92.10;;;;;;5113280;28;20203;-76
2022/08/09 05:26:11;;;;;;;4.93;2.20;;;18.20;92.30;;;;;;5116980;28;20221;-75
2022/08/09 05:28:37;;;;;;;2.90;2.22;;;18.20;92.40;;;;;;5117649;28;20291;-72
2022/08/09 05:31:03;;;;;;;2.50;1.98;;;18.20;92.60;;;;;;5116850;28;20220;-75
2022/08/09 05:33:31;;;;;;;2.90;2.13;;;18.20;92.70;;;;;;5107482;28;20168;-77
2022/08/09 05:35:59;;;;;;;3.33;2.33;;;18.20;92.90;;;;;;5107701;28;20438;-75
2022/08/09 05:38:25;;;;;;;2.75;2.08;;;18.20;93.20;;;;;;5113563;28;20179;-69
2022/08/09 05:40:53;;;;;;;3.13;2.03;;;18.30;93.00;;;;;;5117328;28;20199;-71
2022/08/09 05:43:19;;;;;;;3.75;2.38;;;18.30;93.40;;;;;;5117167;28;20247;-71
2022/08/09 05:45:48;;;;;;;3.88;2.63;;;18.30;93.30;;;;;;5115206;28;20179;-68
2022/08/09 05:48:15;;;;;;;4.22;2.00;;;18.30;93.50;;;;;;5115584;28;20937;-74
2022/08/09 05:50:43;;;;;;;4.28;2.63;;;18.30;93.50;;;;;;5116075;28;20407;-73
2022/08/09 05:53:12;;;;;;;2.88;2.28;;;18.30;93.60;;;;;;5113731;28;20179;-71
2022/08/09 05:55:37;;;;;;;3.22;2.40;;;18.40;93.80;;;;;;5115822;28;20247;-69
2022/08/09 05:58:03;;;;;;;3.47;2.50;;;18.40;93.90;;;;;;5116749;28;20155;-74
2022/08/09 06:00:30;;;;;;;2.95;2.25;;;18.40;94.00;;;;;;5114231;28;20164;-71
2022/08/09 06:03:00;;;;;;;3.60;2.35;;;18.50;94.30;;;;;;5114133;28;20201;-72
2022/08/09 06:05:29;;;;;;;3.53;2.40;;;18.50;94.60;;;;;;5110881;28;20233;-69
2022/08/09 06:08:00;;;;;;;2.58;2.38;;;18.50;94.40;;;;;;5115583;28;20211;-73
2022/08/09 06:10:37;;;;;;;4.60;2.40;;;18.60;94.70;;;;;;5114097;28;20175;-73
2022/08/09 06:13:10;;;;;;;3.38;2.53;;;18.60;94.50;;;;;;5113448;28;20262;-74
2022/08/09 06:15:38;;;;;;;3.92;2.10;;;18.70;94.90;;;;;;5115978;28;20255;-70
2022/08/09 06:18:04;;;;;;;3.45;2.22;;;18.70;94.70;;;;;;5116730;28;20251;-68
2022/08/09 06:20:32;;;;;;;4.15;2.30;;;18.80;95.00;;;;;;5115095;28;20583;-70
2022/08/09 06:22:58;;;;;;;4.25;2.70;;;18.80;95.00;;;;;;5117876;28;20179;-74
2022/08/09 06:25:27;;;;;;;3.63;2.38;;;18.90;95.20;;;;;;5114880;28;20199;-72
2022/08/09 06:27:53;;;;;;;3.15;2.00;;;18.90;95.30;;;;;;5113394;28;20250;-68
2022/08/09 06:30:19;;;;;;;3.40;2.05;;;19.00;95.20;;;;;;5114808;28;20222;-70
2022/08/09 06:32:47;;;;;;;3.17;1.85;;;19.00;95.30;;;;;;5107625;28;20361;-69
2022/08/09 06:35:15;;;;;;;2.42;1.92;;;19.10;95.60;;;;;;5111072;28;20179;-70
2022/08/09 06:37:43;;;;;;;3.28;2.17;;;19.10;95.50;;;;;;5107565;28;20243;-70
2022/08/09 06:40:12;;;;;;;2.42;1.90;;;19.20;95.60;;;;;;5110954;28;20210;-70
2022/08/09 06:42:40;;;;;;;2.88;2.13;;;19.30;95.70;;;;;;5108941;28;20225;-70
2022/08/09 06:45:06;;;;;;;4.95;1.90;;;19.30;96.20;;;;;;5106555;28;20183;-70
2022/08/09 06:47:31;;;;;;;2.80;2.20;;;19.40;95.90;;;;;;5108367;28;20190;-72
2022/08/09 06:49:57;;;;;;;3.75;1.90;;;19.40;95.90;;;;;;5106030;28;20172;-70
2022/08/09 06:52:23;;;;;;;2.38;1.98;;;19.50;96.00;;;;;;5107205;28;20202;-71
2022/08/09 06:54:53;;;;;;;3.83;1.90;;;19.60;96.10;;;;;;5107099;28;20183;-68
2022/08/09 06:57:19;;;;;;;5.63;2.00;;;19.70;96.10;;;;;;5105809;28;20430;-71
2022/08/09 06:59:47;;;;;;;3.35;2.20;;;19.70;96.00;;;;;;5105724;28;20198;-68
2022/08/09 07:02:12;;;;;;;3.17;1.80;;;19.80;96.10;;;;;;5108490;28;20183;-68
2022/08/09 07:04:38;;;;;;;2.90;2.00;;;19.90;96.00;;;;;;5110974;28;20210;-70
2022/08/09 07:07:04;;;;;;;4.28;2.10;;;19.90;96.00;;;;;;5107180;28;20199;-70
2022/08/09 07:09:30;;;;;;;3.95;1.92;;;20.00;96.10;;;;;;5108198;28;20209;-70
2022/08/09 07:11:58;;;;;;;2.92;1.88;;;20.10;96.20;;;;;;5109350;28;20225;-71
2022/08/09 07:14:23;;;;;;;3.03;1.85;;;20.20;96.50;;;;;;5108214;28;20211;-70
2022/08/09 07:16:49;;;;;;;2.67;2.10;;;20.20;96.20;;;;;;5111570;28;20167;-69
2022/08/09 07:19:15;;;;;;;6.80;1.90;;;20.30;96.20;;;;;;5109639;28;20275;-70
2022/08/09 07:21:42;;;;;;;2.92;1.92;;;20.40;96.00;;;;;;5110614;28;21344;-70
2022/08/09 07:24:08;;;;;;;3.35;1.80;;;20.50;96.00;;;;;;5126194;28;20187;-71
2022/08/09 07:26:34;;;;;;;2.72;1.80;;;20.60;95.90;;;;;;5106572;28;20211;-69
2022/08/09 07:29:00;;;;;;;2.53;1.67;;;20.60;95.80;;;;;;5110619;28;20198;-70
2022/08/09 07:31:25;;;;;;;2.60;1.77;;;20.70;95.80;;;;;;5107547;28;20194;-70
2022/08/09 07:33:51;;;;;;;3.28;2.17;;;20.80;95.80;;;;;;5105043;28;20217;-70
2022/08/09 07:36:17;;;;;;;2.28;1.98;;;20.90;95.70;;;;;;5106283;28;20206;-68
2022/08/09 07:38:43;;;;;;;2.17;1.80;;;20.90;95.60;;;;;;5109629;28;20191;-70
2022/08/09 07:41:10;;;;;;;3.78;2.00;;;21.00;95.60;;;;;;5106334;28;20282;-70
2022/08/09 07:43:36;;;;;;;2.50;2.00;;;21.10;95.40;;;;;;5108406;28;20198;-69
2022/08/09 07:46:02;;;;;;;3.78;2.20;;;21.10;95.30;;;;;;5106447;28;20209;-70
2022/08/09 07:48:30;;;;;;;3.45;2.47;;;21.20;95.30;;;;;;5108421;28;20218;-70
2022/08/09 07:51:02;;;;;;;3.05;2.20;;;21.30;95.30;;;;;;5112687;28;20258;-71
2022/08/09 07:53:28;;;;;;;4.10;2.30;;;21.30;95.40;;;;;;5104409;28;20263;-70
2022/08/09 07:55:58;;;;;;;2.47;1.90;;;21.40;95.30;;;;;;5109812;28;20191;-69
2022/08/09 07:58:24;;;;;;;2.58;2.03;;;21.40;95.30;;;;;;5109379;28;20184;-71
2022/08/09 08:00:52;;;;;;;3.05;2.28;;;21.50;95.20;;;;;;5108054;28;20199;-70
2022/08/09 08:03:20;;;;;;;2.65;1.95;;;21.60;95.10;;;;;;5111708;28;20209;-68
2022/08/09 08:05:46;;;;;;;2.83;2.00;;;21.60;95.00;;;;;;5111144;28;20312;-70
2022/08/09 08:08:14;;;;;;;2.58;1.77;;;21.70;94.90;;;;;;5109403;28;20228;-70
2022/08/09 08:10:40;;;;;;;3.92;1.98;;;21.80;94.80;;;;;;5106931;28;20181;-67
2022/08/09 08:13:08;;;;;;;3.95;2.10;;;21.80;94.70;;;;;;5105954;28;20234;-69
2022/08/09 08:15:34;;;;;;;3.92;2.25;;;21.90;94.70;;;;;;5108045;28;20224;-69
2022/08/09 08:18:04;;;;;;;2.30;1.92;;;21.90;94.60;;;;;;5107072;28;20277;-70
2022/08/09 08:20:32;;;;;;;3.40;1.70;;;22.00;94.50;;;;;;5107242;28;20237;-69
2022/08/09 08:23:03;;;;;;;2.53;2.13;;;22.10;94.50;;;;;;5104398;28;20195;-70
2022/08/09 08:25:31;;;;;;;3.75;1.88;;;22.10;94.30;;;;;;5110662;28;20209;-69
2022/08/09 08:27:58;;;;;;;1.92;1.77;;;22.20;94.30;;;;;;5108449;28;20224;-71
2022/08/09 08:30:23;;;;;;;2.63;1.92;;;22.30;94.30;;;;;;5112652;28;20283;-69
2022/08/09 08:32:51;;;;;;;2.97;2.30;;;22.30;94.20;;;;;;5113985;28;20975;-70
2022/08/09 08:35:17;;;;;;;3.10;2.25;;;22.40;94.40;;;;;;5107827;28;20182;-71
2022/08/09 08:37:45;;;;;;;2.97;2.25;;;22.50;94.10;;;;;;5108986;28;20179;-71
2022/08/09 08:40:11;;;;;;;3.08;2.00;;;22.60;94.00;;;;;;5106592;28;20210;-71
2022/08/09 08:42:40;;;;;;;2.60;1.92;;;22.70;93.80;;;;;;5126293;28;20187;-70
2022/08/09 08:45:07;;;;;;;3.00;2.10;;;22.70;93.60;;;;;;5107336;28;20163;-71
2022/08/09 08:47:35;;;;;;;3.33;1.67;;;22.80;93.50;;;;;;5110775;28;20175;-69
2022/08/09 08:50:03;;;;;;;2.85;2.20;;;22.90;93.30;;;;;;5111234;28;20258;-68
2022/08/09 08:52:38;;;;;;;2.25;1.88;;;22.90;93.10;;;;;;5109697;28;20179;-69
2022/08/09 08:55:04;;;;;;;2.90;1.83;;;23.00;92.80;;;;;;5113231;28;20174;-70
2022/08/09 08:57:34;;;;;;;2.67;1.77;;;23.10;92.90;;;;;;5114202;28;20186;-71
2022/08/09 09:00:00;;;;;;;2.85;2.15;;;23.20;92.90;;;;;;5108341;28;20199;-71
2022/08/09 09:02:29;;;;;;;4.75;2.22;;;23.30;92.60;;;;;;5115768;28;20220;-71
2022/08/09 09:04:57;;;;;;;3.05;2.08;;;23.30;92.40;;;;;;5111522;28;20171;-71
2022/08/09 09:07:29;;;;;;;2.60;2.00;;;23.40;92.50;;;;;;5110564;28;20215;-70
2022/08/09 09:09:55;;;;;;;3.10;1.90;;;23.50;92.60;;;;;;5114529;28;20259;-71
2022/08/09 09:12:26;;;;;;;2.85;1.80;;;23.60;92.30;;;;;;5112919;28;20211;-72
2022/08/09 09:14:52;;;;;;;2.40;2.10;;;23.70;92.00;;;;;;5112410;28;20179;-72
2022/08/09 09:17:18;;;;;;;2.63;1.80;;;23.70;91.90;;;;;;5115884;28;20186;-71
2022/08/09 09:19:49;;;;;;;2.47;1.95;;;23.80;91.70;;;;;;5110504;28;20217;-72
2022/08/09 09:22:18;;;;;;;3.10;2.10;;;23.90;91.60;;;;;;5113661;28;20201;-71
2022/08/09 09:24:49;;;;;;;2.08;1.60;;;24.00;91.70;;;;;;5115350;28;20251;-70
2022/08/09 09:27:21;;;;;;;2.95;1.80;;;24.10;91.20;;;;;;5107943;28;20206;-70
2022/08/09 09:29:50;;;;;;;3.90;2.80;;;24.20;91.20;;;;;;5111497;28;20266;-71
2022/08/09 09:32:21;;;;;;;3.63;2.25;;;24.30;91.20;;;;;;5128291;28;20181;-73
2022/08/09 09:35:19;;;;;;;3.83;2.22;;;24.30;90.90;;;;;;5104129;28;20179;-71
2022/08/09 09:37:44;;;;;;;3.50;2.15;;;24.50;90.60;;;;;;5081067;28;20225;-71
2022/08/09 09:40:10;;;;;;;2.38;1.90;;;24.60;91.00;;;;;;5112818;28;20203;-71
2022/08/09 09:42:38;;;;;;;2.58;1.63;;;24.70;91.00;;;;;;5112949;28;20180;-67
2022/08/09 09:45:06;;;;;;;2.88;1.92;;;24.80;90.80;;;;;;5115513;28;20186;-72
2022/08/09 09:47:32;;;;;;;3.65;1.65;;;24.90;90.40;;;;;;5112910;28;20213;-69
2022/08/09 09:49:59;;;;;;;3.95;2.00;;;25.00;90.20;;;;;;5115314;28;20190;-71
2022/08/09 09:52:26;;;;;;;4.10;1.85;;;25.10;90.00;;;;;;5128173;28;20264;-71
2022/08/09 09:55:08;;;;;;;2.50;1.67;;;25.20;89.70;;;;;;5114764;28;20266;-70
2022/08/09 09:57:36;;;;;;;2.92;1.73;;;25.20;88.40;;;;;;5113787;28;20251;-71
2022/08/09 10:00:23;;;;;;;4.20;1.70;;;25.40;89.10;;;;;;5116513;28;20198;-69
2022/08/09 10:02:49;;;;;;;2.17;1.60;;;25.50;86.90;;;;;;5113920;28;20198;-72
2022/08/09 10:05:14;;;;;;;2.10;1.40;;;25.60;88.20;;;;;;5111189;28;20186;-68
2022/08/09 10:07:42;;;;;;;3.35;1.70;;;25.70;87.80;;;;;;5112841;28;20214;-72
2022/08/09 10:10:08;;;;;;;4.32;1.58;;;25.70;87.30;;;;;;5114583;28;20180;-69
2022/08/09 10:12:37;;;;;;;2.85;1.60;;;25.90;86.90;;;;;;5113489;28;20183;-72
2022/08/09 10:15:03;;;;;;;2.60;1.70;;;26.00;84.80;;;;;;5112375;28;20192;-70
2022/08/09 10:17:32;;;;;;;2.30;1.48;;;26.10;85.00;;;;;;5113461;28;20191;-71
2022/08/09 10:19:59;;;;;;;4.90;1.60;;;26.20;84.20;;;;;;5111143;28;20184;-72
2022/08/09 10:22:30;;;;;;;3.55;1.60;;;26.30;84.40;;;;;;5113122;28;20208;-71
2022/08/09 10:24:59;;;;;;;1.98;1.33;;;26.50;83.00;;;;;;5113768;28;20178;-70
2022/08/09 10:27:25;;;;;;;2.05;1.35;;;26.90;83.50;;;;;;5112743;28;20199;-70
2022/08/09 10:29:51;;;;;;;1.70;1.35;;;27.30;81.60;;;;;;5114009;28;20179;-71
2022/08/09 10:32:20;;;;;;;2.13;1.40;;;27.70;81.10;;;;;;5114732;28;20209;-72
2022/08/09 10:34:47;;;;;;;2.05;1.50;;;28.20;79.60;;;;;;5114533;28;20271;-68
2022/08/09 10:37:16;;;;;;;2.42;1.45;;;28.60;78.70;;;;;;5114038;28;20196;-71
2022/08/09 10:39:42;;;;;;;4.07;1.33;;;29.00;77.60;;;;;;5116760;28;20221;-70
2022/08/09 10:42:07;;;;;;;1.75;1.30;;;29.40;75.40;;;;;;5113684;28;20231;-69
2022/08/09 10:44:34;;;;;;;1.75;1.50;;;29.70;74.30;;;;;;5115374;28;20274;-70
2022/08/09 10:47:16;;;;;;;3.92;1.67;;;30.00;73.20;;;;;;5112183;28;20186;-71
2022/08/09 10:49:52;;;;;;;2.42;1.55;;;30.30;69.50;;;;;;5115106;28;20203;-71
2022/08/09 10:52:26;;;;;;;2.60;1.67;;;30.50;69.30;;;;;;5114942;28;20277;-73
2022/08/09 10:54:52;;;;;;;2.03;1.50;;;30.70;71.10;;;;;;5114796;28;20203;-71
2022/08/09 10:57:18;;;;;;;1.95;1.48;;;30.90;70.80;;;;;;5129810;28;20243;-72
2022/08/09 10:59:44;;;;;;;2.53;1.63;;;31.20;70.50;;;;;;5113782;28;20167;-70
2022/08/09 11:02:40;;;;;;;2.17;1.60;;;31.50;70.20;;;;;;5115232;28;20222;-69
2022/08/09 11:05:15;;;;;;;2.22;1.23;;;31.70;67.00;;;;;;5115088;28;20202;-70
2022/08/09 11:07:44;;;;;;;2.80;1.42;;;31.90;66.90;;;;;;5114346;28;20472;-71
2022/08/09 11:10:12;;;;;;;3.03;1.52;;;32.10;67.80;;;;;;5114321;28;20197;-71
2022/08/09 11:12:37;;;;;;;1.58;1.30;;;32.20;66.80;;;;;;5114994;28;20210;-70
2022/08/09 11:15:08;;;;;;;2.08;1.30;;;32.30;66.30;;;;;;5115608;28;20198;-73
2022/08/09 11:17:37;;;;;;;1.90;1.27;;;32.40;65.00;;;;;;5114151;28;20174;-70
2022/08/09 11:20:14;;;;;;;1.85;1.40;;;32.50;64.40;;;;;;5113721;28;20175;-68
2022/08/09 11:22:39;;;;;;;2.67;1.38;;;32.60;62.80;;;;;;5111523;28;20185;-72
2022/08/09 11:25:16;;;;;;;2.53;1.40;;;32.60;64.20;;;;;;5116325;28;20171;-71
2022/08/09 11:27:48;;;;;;;1.70;1.33;;;32.70;63.00;;;;;;5113729;28;20182;-69
2022/08/09 11:30:30;;;;;;;2.70;1.45;;;32.80;62.20;;;;;;5114111;28;20171;-71
2022/08/09 11:33:15;;;;;;;1.52;1.23;;;32.90;60.20;;;;;;5112441;28;20171;-71
2022/08/09 11:35:44;;;;;;;1.55;1.25;;;32.90;58.70;;;;;;5112714;28;20218;-70
2022/08/09 11:38:19;;;;;;;2.05;1.40;;;32.90;58.90;;;;;;5113468;28;20190;-70
2022/08/09 11:40:45;;;;;;;3.55;1.35;;;32.90;57.80;;;;;;5113400;28;20186;-68
2022/08/09 11:43:41;;;;;;;1.45;1.30;;;32.80;58.30;;;;;;5112481;28;20186;-70
2022/08/09 11:46:08;;;;;;;2.50;1.33;;;32.70;55.50;;;;;;5114493;28;20181;-68
2022/08/09 11:48:50;;;;;;;1.55;1.25;;;32.70;57.80;;;;;;5113938;28;20220;-71
2022/08/09 11:51:17;;;;;;;2.88;1.48;;;32.80;55.80;;;;;;5129006;28;20171;-68
2022/08/09 11:53:44;;;;;;;3.85;1.42;;;32.80;57.60;;;;;;5111870;28;20178;-70
2022/08/09 11:56:17;;;;;;;1.77;1.50;;;32.90;57.20;;;;;;5114944;28;20159;-71
2022/08/09 11:58:59;;;;;;;1.45;1.35;;;32.90;55.00;;;;;;5113629;28;20186;-70
2022/08/09 12:01:39;;;;;;;2.15;1.40;;;33.00;54.30;;;;;;5115605;28;20202;-71
2022/08/09 12:04:15;;;;;;;1.35;1.23;;;33.10;53.80;;;;;;5112238;28;20181;-70
2022/08/09 12:06:52;;;;;;;2.10;1.40;;;33.20;53.80;;;;;;5112604;28;20767;-71
2022/08/09 12:09:25;;;;;;;1.35;1.13;;;33.30;53.70;;;;;;5113220;28;20232;-67
2022/08/09 12:12:04;;;;;;;2.75;1.17;;;33.40;53.90;;;;;;5112735;28;20194;-72
2022/08/09 12:14:32;;;;;;;1.05;0.95;;;33.40;53.90;;;;;;5112949;28;20175;-70
2022/08/09 12:16:58;;;;;;;1.40;1.00;;;33.50;54.50;;;;;;5113934;28;20187;-70
2022/08/09 12:19:31;;;;;;;2.33;1.13;;;33.70;54.20;;;;;;5112405;28;20190;-72
2022/08/09 12:22:02;;;;;;;1.50;1.10;;;33.70;52.20;;;;;;5111093;28;20198;-71
2022/08/09 12:24:28;;;;;;;1.27;1.02;;;33.90;52.60;;;;;;5112054;28;20167;-72
2022/08/09 12:26:57;;;;;;;1.30;1.20;;;34.00;53.20;;;;;;5115111;28;20206;-70
2022/08/09 12:29:25;;;;;;;2.47;1.20;;;34.10;52.40;;;;;;5128379;28;20190;-72
2022/08/09 12:32:01;;;;;;;1.23;1.13;;;34.10;52.00;;;;;;5130047;28;20175;-71
2022/08/09 12:34:35;;;;;;;1.50;1.40;;;34.10;50.80;;;;;;5109858;28;20209;-69
2022/08/09 12:37:02;;;;;;;1.50;1.05;;;34.10;51.10;;;;;;5113998;28;20192;-71
2022/08/09 12:39:28;;;;;;;2.45;1.38;;;34.10;51.20;;;;;;5128114;28;20182;-70
2022/08/09 12:41:54;;;;;;;1.85;1.23;;;34.10;51.10;;;;;;5112295;28;20187;-71
2022/08/09 12:44:22;;;;;;;2.65;1.20;;;34.00;51.20;;;;;;5113529;28;20195;-72
2022/08/09 12:46:48;;;;;;;1.85;1.50;;;34.10;51.20;;;;;;5111352;28;20236;-72
2022/08/09 12:49:15;;;;;;;1.75;1.40;;;34.20;50.90;;;;;;5112655;28;20194;-70
2022/08/09 12:51:52;;;;;;;1.92;1.27;;;34.30;50.90;;;;;;5112478;28;20186;-70
2022/08/09 12:54:18;;;;;;;1.70;1.25;;;34.40;49.60;;;;;;5114966;28;20319;-71
2022/08/09 12:56:48;;;;;;;3.30;1.30;;;34.60;50.70;;;;;;5112428;28;20191;-69
2022/08/09 12:59:18;;;;;;;2.17;1.10;;;34.60;49.90;;;;;;5113373;28;20271;-69